createdAt,value
2018-11-28T00:00:28.066Z,7.70
2018-11-28T00:02:57.042Z,7.70
2018-11-28T00:05:26.302Z,7.70
2018-11-28T00:07:55.239Z,7.70
2018-11-28T00:10:24.370Z,7.70
2018-11-28T00:12:53.211Z,7.60
2018-11-28T00:15:22.461Z,7.60
2018-11-28T00:17:51.379Z,7.60
2018-11-28T00:20:22.098Z,7.60
2018-11-28T00:22:50.954Z,7.60
2018-11-28T00:25:20.334Z,7.60
2018-11-28T00:27:49.154Z,7.60
2018-11-28T00:30:19.809Z,7.60
2018-11-28T00:32:48.562Z,7.60
2018-11-28T00:35:18.498Z,7.50
2018-11-28T00:37:47.590Z,7.50
2018-11-28T00:40:17.698Z,7.60
2018-11-28T00:42:47.130Z,7.60
2018-11-28T00:45:19.058Z,7.60
2018-11-28T00:47:48.010Z,7.60
2018-11-28T00:50:17.894Z,7.60
2018-11-28T00:52:46.717Z,7.70
2018-11-28T00:55:16.622Z,7.70
2018-11-28T00:57:46.262Z,7.80
2018-11-28T01:00:20.819Z,7.80
2018-11-28T01:02:50.015Z,7.80
2018-11-28T01:05:19.357Z,7.80
2018-11-28T01:07:49.951Z,7.80
2018-11-28T01:10:20.041Z,7.80
2018-11-28T01:12:49.565Z,7.80
2018-11-28T01:15:19.472Z,7.80
2018-11-28T01:17:48.348Z,7.80
2018-11-28T01:20:19.384Z,7.80
2018-11-28T01:22:48.027Z,7.70
2018-11-28T01:25:20.590Z,7.70
2018-11-28T01:27:49.685Z,7.80
2018-11-28T01:30:19.799Z,7.80
2018-11-28T01:32:48.499Z,7.80
2018-11-28T01:35:18.509Z,7.90
2018-11-28T01:37:47.533Z,7.90
2018-11-28T01:40:17.203Z,7.90
2018-11-28T01:42:46.514Z,7.90
2018-11-28T01:45:20.031Z,7.80
2018-11-28T01:47:49.048Z,7.90
2018-11-28T01:50:19.883Z,7.90
2018-11-28T01:52:48.715Z,8.00
2018-11-28T01:55:18.513Z,8.10
2018-11-28T01:57:47.690Z,8.10
2018-11-28T02:00:19.203Z,8.20
2018-11-28T02:02:49.148Z,8.20
2018-11-28T02:05:17.997Z,8.20
2018-11-28T02:07:46.766Z,8.20
2018-11-28T02:10:16.689Z,8.20
2018-11-28T02:12:45.481Z,8.30
2018-11-28T02:15:15.579Z,8.30
2018-11-28T02:17:44.626Z,8.40
2018-11-28T02:20:15.348Z,8.30
2018-11-28T02:22:44.239Z,8.40
2018-11-28T02:25:17.193Z,8.40
2018-11-28T02:27:46.648Z,8.50
2018-11-28T02:30:17.505Z,8.50
2018-11-28T02:32:47.153Z,8.50
2018-11-28T02:35:16.573Z,8.50
2018-11-28T02:37:45.311Z,8.50
2018-11-28T02:40:18.277Z,8.50
2018-11-28T02:42:47.643Z,8.50
2018-11-28T02:45:18.267Z,8.60
2018-11-28T02:47:47.192Z,8.60
2018-11-28T02:50:17.524Z,8.60
2018-11-28T02:52:46.742Z,8.60
2018-11-28T02:55:17.086Z,8.70
2018-11-28T02:57:47.304Z,8.70
2018-11-28T03:00:21.972Z,8.70
2018-11-28T03:02:51.197Z,8.70
2018-11-28T03:05:20.754Z,8.70
2018-11-28T03:07:50.301Z,8.80
2018-11-28T03:10:23.108Z,8.80
2018-11-28T03:12:52.097Z,8.80
2018-11-28T03:15:27.873Z,8.90
2018-11-28T03:17:56.845Z,8.90
2018-11-28T03:20:26.029Z,8.90
2018-11-28T03:22:54.858Z,9.00
2018-11-28T03:25:23.664Z,9.00
2018-11-28T03:27:52.365Z,9.00
2018-11-28T03:30:21.098Z,9.00
2018-11-28T03:32:50.235Z,9.00
2018-11-28T03:35:19.206Z,9.00
2018-11-28T03:37:47.921Z,9.10
2018-11-28T03:40:16.693Z,9.10
2018-11-28T03:42:45.897Z,9.10
2018-11-28T03:45:16.053Z,9.20
2018-11-28T03:47:45.632Z,9.20
2018-11-28T03:50:15.316Z,9.30
2018-11-28T03:52:44.203Z,9.30
2018-11-28T03:55:14.993Z,9.40
2018-11-28T03:57:45.828Z,9.40
2018-11-28T04:00:16.054Z,9.40
2018-11-28T04:02:44.950Z,9.50
2018-11-28T04:05:14.344Z,9.50
2018-11-28T04:07:43.423Z,9.50
2018-11-28T04:10:15.251Z,9.50
2018-11-28T04:12:45.045Z,9.60
2018-11-28T04:15:20.967Z,9.60
2018-11-28T04:17:50.141Z,9.50
2018-11-28T04:20:20.147Z,9.60
2018-11-28T04:22:49.340Z,9.50
2018-11-28T04:25:21.991Z,9.60
2018-11-28T04:27:51.047Z,9.60
2018-11-28T04:30:21.115Z,9.60
2018-11-28T04:32:50.397Z,9.60
2018-11-28T04:35:19.355Z,9.60
2018-11-28T04:37:48.319Z,9.60
2018-11-28T04:40:18.331Z,9.60
2018-11-28T04:42:47.819Z,9.60
2018-11-28T04:45:18.959Z,9.70
2018-11-28T04:47:47.864Z,9.70
2018-11-28T04:50:16.773Z,9.70
2018-11-28T04:52:46.204Z,9.70
2018-11-28T04:55:16.827Z,9.70
2018-11-28T04:57:45.909Z,9.70
2018-11-28T05:00:23.319Z,9.70
2018-11-28T05:02:53.054Z,9.70
2018-11-28T05:05:22.231Z,9.70
2018-11-28T05:07:52.204Z,9.70
2018-11-28T05:10:27.840Z,9.70
2018-11-28T05:12:57.306Z,9.80
2018-11-28T05:15:28.238Z,9.70
2018-11-28T05:17:57.769Z,9.80
2018-11-28T05:20:34.506Z,9.80
2018-11-28T05:23:03.939Z,9.80
2018-11-28T05:25:33.596Z,9.80
2018-11-28T05:28:02.447Z,9.80
2018-11-28T05:30:32.182Z,9.90
2018-11-28T05:33:01.521Z,9.90
2018-11-28T05:35:38.276Z,9.90
2018-11-28T05:38:12.729Z,9.90
2018-11-28T05:40:42.280Z,10.00
2018-11-28T05:43:12.034Z,10.00
2018-11-28T05:45:40.925Z,10.00
2018-11-28T05:48:09.676Z,10.00
2018-11-28T05:50:38.620Z,10.10
2018-11-28T05:53:07.615Z,10.10
2018-11-28T05:55:36.633Z,10.10
2018-11-28T05:58:06.395Z,10.10
2018-11-28T06:00:39.287Z,10.20
2018-11-28T06:03:10.938Z,10.20
2018-11-28T06:05:41.042Z,10.20
2018-11-28T06:08:10.088Z,10.30
2018-11-28T06:10:39.168Z,10.30
2018-11-28T06:13:08.080Z,10.40
2018-11-28T06:15:36.824Z,10.40
2018-11-28T06:18:06.382Z,10.40
2018-11-28T06:20:35.653Z,10.50
2018-11-28T06:23:04.475Z,10.50
2018-11-28T06:25:33.278Z,10.50
2018-11-28T06:28:02.050Z,10.50
2018-11-28T06:30:31.454Z,10.50
2018-11-28T06:33:00.217Z,10.60
2018-11-28T06:35:29.359Z,10.60
2018-11-28T06:37:58.404Z,10.60
2018-11-28T06:40:27.386Z,10.60
2018-11-28T06:42:56.430Z,10.70
2018-11-28T06:45:25.409Z,10.70
2018-11-28T06:47:54.132Z,10.80
2018-11-28T06:50:23.599Z,10.80
2018-11-28T06:52:52.552Z,10.90
2018-11-28T06:55:22.535Z,11.00
2018-11-28T06:57:51.359Z,11.10
2018-11-28T07:00:21.179Z,11.10
2018-11-28T07:02:53.302Z,11.20
2018-11-28T07:05:23.599Z,11.20
2018-11-28T07:07:53.254Z,11.20
2018-11-28T07:10:22.764Z,11.30
2018-11-28T07:12:51.690Z,11.30
2018-11-28T07:15:22.840Z,11.40
2018-11-28T07:17:51.600Z,11.40
2018-11-28T07:20:20.607Z,11.50
2018-11-28T07:22:49.633Z,11.50
2018-11-28T07:25:19.408Z,11.60
2018-11-28T07:27:49.440Z,11.70
2018-11-28T07:30:20.253Z,11.70
2018-11-28T07:32:50.018Z,11.70
2018-11-28T07:35:18.990Z,11.80
2018-11-28T07:37:47.772Z,11.80
2018-11-28T07:40:18.628Z,11.80
2018-11-28T07:42:50.503Z,11.80
2018-11-28T07:45:19.819Z,11.90
2018-11-28T07:47:49.067Z,11.90
2018-11-28T07:50:19.110Z,11.90
2018-11-28T07:52:48.305Z,11.90
2018-11-28T07:55:17.285Z,11.90
2018-11-28T07:57:46.761Z,11.90
2018-11-28T08:00:16.171Z,11.90
2018-11-28T08:02:45.491Z,12.00
2018-11-28T08:05:14.274Z,11.90
2018-11-28T08:07:43.170Z,12.00
2018-11-28T08:10:18.407Z,12.00
2018-11-28T08:12:47.380Z,12.00
2018-11-28T08:15:16.471Z,12.00
2018-11-28T08:17:45.707Z,12.00
2018-11-28T08:20:14.423Z,12.10
2018-11-28T08:22:43.256Z,12.00
2018-11-28T08:25:13.462Z,12.10
2018-11-28T08:27:43.031Z,12.00
2018-11-28T08:30:28.598Z,12.10
2018-11-28T08:32:58.096Z,12.10
2018-11-28T08:35:27.095Z,12.00
2018-11-28T08:37:56.115Z,12.00
2018-11-28T08:40:26.096Z,12.00
2018-11-28T08:42:56.198Z,12.00
2018-11-28T08:45:25.006Z,12.00
2018-11-28T08:47:56.182Z,12.10
2018-11-28T08:50:28.511Z,12.10
2018-11-28T08:52:57.796Z,12.00
2018-11-28T08:55:26.534Z,12.00
2018-11-28T08:57:55.400Z,12.00
2018-11-28T09:00:26.604Z,12.00
2018-11-28T09:02:56.835Z,12.00
2018-11-28T09:05:25.874Z,12.10
2018-11-28T09:07:54.916Z,12.00
2018-11-28T09:10:23.791Z,12.00
2018-11-28T09:12:52.738Z,12.00
2018-11-28T09:15:24.191Z,12.10
2018-11-28T09:17:53.133Z,12.10
2018-11-28T09:20:21.889Z,12.00
2018-11-28T09:22:50.677Z,12.00
2018-11-28T09:25:20.268Z,12.10
2018-11-28T09:27:51.273Z,12.10
2018-11-28T09:30:20.776Z,12.10
2018-11-28T09:32:50.500Z,12.10
2018-11-28T09:35:20.255Z,12.10
2018-11-28T09:37:49.147Z,12.10
2018-11-28T09:40:20.769Z,12.10
2018-11-28T09:42:50.255Z,12.10
2018-11-28T09:45:19.731Z,12.10
2018-11-28T09:47:48.745Z,12.10
2018-11-28T09:50:23.503Z,12.10
2018-11-28T09:52:52.439Z,12.10
2018-11-28T09:55:23.253Z,12.20
2018-11-28T09:57:52.418Z,12.20
2018-11-28T10:00:23.508Z,12.20
2018-11-28T10:02:54.206Z,12.20
2018-11-28T10:05:27.269Z,12.20
2018-11-28T10:07:56.143Z,12.20
2018-11-28T10:10:24.791Z,12.20
2018-11-28T10:12:53.508Z,12.20
2018-11-28T10:15:23.445Z,12.20
2018-11-28T10:17:52.456Z,12.30
2018-11-28T10:20:21.580Z,12.20
2018-11-28T10:22:51.788Z,12.20
2018-11-28T10:25:22.019Z,12.20
2018-11-28T10:27:55.116Z,12.30
2018-11-28T10:30:27.362Z,12.30
2018-11-28T10:32:56.718Z,12.20
2018-11-28T10:35:26.050Z,12.30
2018-11-28T10:37:54.790Z,12.30
